北京 の空港の天気 - METARとTAF

北京首都国際空港 ( ZBAA / PEK ) - 中国 北京市
飛行場実況気象(Metar)
観測時間01/19 05:30 CST (01/18 21:30 UTC)
風向・風速北 2m/s
視程8000m
天気現象
なし
気温-8℃
湿度67%
気圧1023hPa
METARZBAA 182130Z 35002MPS 8000 NSC M08/M13 Q1023 NOSIG
過去の天気等 Google飛行場航空写真 Wunderground天気予報

過去48時間のMETAR

飛行場予報(TAF)
発表時間: 1/18 23:30 CST (1/18 15:30 UTC)
予報対象時間: 19日2時 CST ~ 20日2時 CST
風向・風速北西 4m/s
視程5,000m
天気現象煙霧
なし
TAF ZBAA 181530Z 1818/1918 32004MPS 5000 HZ NSC TX05/1907Z TNM09/22Z